createdAt,value
2023-02-14T00:01:00.612Z,4.53
2023-02-14T00:02:06.740Z,4.70
2023-02-14T00:03:10.041Z,4.75
2023-02-14T00:04:15.774Z,4.71
2023-02-14T00:05:19.269Z,4.71
2023-02-14T00:06:22.986Z,4.71
2023-02-14T00:07:26.577Z,4.69
2023-02-14T00:08:29.818Z,4.62
2023-02-14T00:09:34.539Z,4.57
2023-02-14T00:10:38.036Z,4.58
2023-02-14T00:11:44.360Z,4.60
2023-02-14T00:12:48.880Z,4.58
2023-02-14T00:14:09.553Z,4.61
2023-02-14T00:15:24.568Z,4.76
2023-02-14T00:16:28.262Z,4.76
2023-02-14T00:17:32.765Z,4.84
2023-02-14T00:18:54.698Z,4.63
2023-02-14T00:19:57.906Z,4.57
2023-02-14T00:21:02.021Z,4.63
2023-02-14T00:22:05.945Z,4.63
2023-02-14T00:23:09.195Z,4.51
2023-02-14T00:24:16.307Z,4.59
2023-02-14T00:25:19.411Z,4.62
2023-02-14T00:26:26.134Z,4.64
2023-02-14T00:27:30.052Z,4.66
2023-02-14T00:28:33.762Z,4.68
2023-02-14T00:29:37.582Z,4.72
2023-02-14T00:30:41.156Z,4.57
2023-02-14T00:31:46.407Z,4.54
2023-02-14T00:32:50.634Z,4.51
2023-02-14T00:33:54.593Z,4.55
2023-02-14T00:34:58.237Z,4.62
2023-02-14T00:36:03.301Z,4.64
2023-02-14T00:37:05.666Z,4.53
2023-02-14T00:38:08.978Z,4.57
2023-02-14T00:39:13.293Z,4.67
2023-02-14T00:40:17.961Z,4.72
2023-02-14T00:41:20.419Z,4.41
2023-02-14T00:42:24.060Z,4.59
2023-02-14T00:43:26.382Z,4.59
2023-02-14T00:44:29.668Z,4.53
2023-02-14T00:45:32.878Z,4.56
2023-02-14T00:46:35.633Z,4.60
2023-02-14T00:47:39.560Z,4.65
2023-02-14T00:48:42.987Z,4.74
2023-02-14T00:49:49.800Z,4.65
2023-02-14T00:50:52.922Z,4.53
2023-02-14T00:51:56.293Z,4.63
2023-02-14T00:53:00.458Z,4.81
2023-02-14T00:54:04.047Z,4.59
2023-02-14T00:55:08.623Z,4.52
2023-02-14T00:56:12.307Z,4.58
2023-02-14T00:57:15.814Z,4.69
2023-02-14T00:58:19.137Z,4.77
2023-02-14T00:59:23.777Z,4.72
2023-02-14T01:00:28.351Z,4.77
2023-02-14T01:01:32.225Z,4.90
2023-02-14T01:02:40.560Z,4.60
2023-02-14T01:03:44.808Z,4.62
2023-02-14T01:04:47.776Z,4.73
2023-02-14T01:05:51.270Z,4.70
2023-02-14T01:06:54.882Z,4.70
2023-02-14T01:07:58.478Z,4.84
2023-02-14T01:09:01.899Z,4.83
2023-02-14T01:10:07.922Z,4.85
2023-02-14T01:11:11.509Z,4.81
2023-02-14T01:12:15.699Z,4.82
2023-02-14T01:13:19.553Z,4.84
2023-02-14T01:14:22.336Z,4.79
2023-02-14T01:15:25.314Z,4.78
2023-02-14T01:16:30.369Z,4.72
2023-02-14T01:17:33.798Z,4.73
2023-02-14T01:18:37.816Z,4.53
2023-02-14T01:19:43.194Z,4.59
2023-02-14T01:20:47.617Z,4.66
2023-02-14T01:21:51.780Z,4.80
2023-02-14T01:23:00.026Z,4.73
2023-02-14T01:24:04.433Z,4.67
2023-02-14T01:25:09.710Z,4.79
2023-02-14T01:26:13.850Z,4.84
2023-02-14T01:27:17.454Z,4.71
2023-02-14T01:28:21.781Z,4.85
2023-02-14T01:29:26.781Z,4.76
2023-02-14T01:30:29.593Z,4.65
2023-02-14T01:31:33.230Z,4.74
2023-02-14T01:32:36.621Z,4.72
2023-02-14T01:33:42.660Z,4.81
2023-02-14T01:34:45.230Z,4.76
2023-02-14T01:35:47.594Z,4.75
2023-02-14T01:36:50.989Z,4.57
2023-02-14T01:37:54.288Z,4.53
2023-02-14T01:38:58.514Z,4.64
2023-02-14T01:40:03.133Z,4.63
2023-02-14T01:41:06.351Z,4.71
2023-02-14T01:42:11.004Z,4.60
2023-02-14T01:43:19.527Z,4.55
2023-02-14T01:44:26.906Z,4.74
2023-02-14T01:45:31.553Z,4.80
2023-02-14T01:46:37.475Z,4.74
2023-02-14T01:47:43.371Z,4.87
2023-02-14T01:48:53.971Z,4.77
2023-02-14T01:50:01.142Z,4.62
2023-02-14T01:51:04.542Z,4.70
2023-02-14T01:52:08.673Z,4.75
2023-02-14T01:53:15.213Z,4.74
2023-02-14T01:54:20.564Z,4.70
2023-02-14T01:55:26.909Z,4.74
2023-02-14T01:56:32.303Z,4.87
2023-02-14T01:57:46.561Z,4.94
2023-02-14T01:58:51.336Z,4.79
2023-02-14T01:59:57.130Z,4.93
2023-02-14T02:01:03.359Z,4.85
2023-02-14T02:02:09.288Z,4.88
2023-02-14T02:03:13.169Z,4.77
2023-02-14T02:04:22.060Z,4.73
2023-02-14T02:05:26.581Z,4.82
2023-02-14T02:06:32.615Z,4.81
2023-02-14T02:07:36.710Z,4.78
2023-02-14T02:08:42.717Z,4.88
2023-02-14T02:09:59.387Z,4.91
2023-02-14T02:11:02.992Z,4.99
2023-02-14T02:12:06.602Z,4.93
2023-02-14T02:13:12.915Z,4.87
2023-02-14T02:14:20.831Z,4.90
2023-02-14T02:15:24.938Z,5.01
2023-02-14T02:16:35.516Z,5.09
2023-02-14T02:17:43.135Z,5.13
2023-02-14T02:18:48.624Z,5.09
2023-02-14T02:19:52.820Z,4.98
2023-02-14T02:20:57.776Z,5.08
2023-02-14T02:22:21.006Z,5.23
2023-02-14T02:23:44.006Z,5.03
2023-02-14T02:24:51.962Z,5.00
2023-02-14T02:26:15.355Z,5.18
2023-02-14T02:27:22.201Z,4.94
2023-02-14T02:30:17.897Z,4.95
2023-02-14T02:31:23.320Z,4.82
2023-02-14T02:32:29.377Z,4.72
2023-02-14T02:33:39.260Z,4.88
2023-02-14T02:34:45.675Z,5.10
2023-02-14T02:35:58.947Z,5.12
2023-02-14T02:37:10.251Z,5.22
2023-02-14T02:38:17.411Z,5.20
2023-02-14T02:39:25.620Z,5.12
2023-02-14T02:40:31.626Z,5.00
2023-02-14T02:41:54.654Z,4.95
2023-02-14T02:43:04.749Z,4.93
2023-02-14T02:44:18.086Z,4.67
2023-02-14T02:45:23.565Z,4.68
2023-02-14T02:46:46.256Z,4.75
2023-02-14T02:48:00.551Z,4.89
2023-02-14T02:49:09.482Z,4.78
2023-02-14T02:50:40.811Z,4.76
2023-02-14T02:52:09.648Z,4.86
2023-02-14T02:53:18.387Z,4.83
2023-02-14T02:54:35.079Z,4.80
2023-02-14T02:56:02.903Z,4.65
2023-02-14T02:57:11.098Z,4.69
2023-02-14T02:58:18.886Z,4.73
2023-02-14T02:59:25.095Z,4.73
2023-02-14T03:00:31.662Z,4.69
2023-02-14T03:01:37.646Z,4.71
2023-02-14T03:03:03.402Z,4.65
2023-02-14T03:04:29.717Z,4.65
2023-02-14T03:05:35.069Z,4.78
2023-02-14T03:06:38.364Z,4.80
2023-02-14T03:07:42.700Z,4.84
2023-02-14T03:08:51.468Z,4.65
2023-02-14T03:09:58.957Z,4.49
2023-02-14T03:11:05.019Z,4.51
2023-02-14T03:12:25.546Z,4.65
2023-02-14T03:13:47.003Z,4.65
2023-02-14T03:14:52.412Z,4.62
2023-02-14T03:15:59.762Z,4.66
2023-02-14T03:17:08.908Z,4.72
2023-02-14T03:18:19.212Z,4.78
2023-02-14T03:19:43.085Z,4.72
2023-02-14T03:20:48.576Z,4.69
2023-02-14T03:21:54.730Z,4.62
2023-02-14T03:23:00.322Z,4.58
2023-02-14T03:24:06.520Z,4.59
2023-02-14T03:25:27.879Z,4.59
2023-02-14T03:26:33.144Z,4.66
2023-02-14T03:27:38.749Z,4.60
2023-02-14T03:28:49.801Z,4.59
2023-02-14T03:30:10.840Z,4.51
2023-02-14T03:31:15.493Z,4.49
2023-02-14T03:32:34.056Z,4.32
2023-02-14T03:33:40.855Z,4.47
2023-02-14T03:34:59.203Z,4.40
2023-02-14T03:36:12.310Z,4.33
2023-02-14T03:37:23.238Z,4.35
2023-02-14T03:38:34.483Z,4.19
2023-02-14T03:39:44.666Z,4.12
2023-02-14T03:40:50.066Z,4.22
2023-02-14T03:41:55.542Z,4.17
2023-02-14T03:43:00.181Z,4.09
2023-02-14T03:44:05.708Z,4.02
2023-02-14T03:45:11.136Z,4.25
2023-02-14T03:46:18.772Z,4.14
2023-02-14T03:47:24.963Z,4.19
2023-02-14T03:48:30.344Z,4.07
2023-02-14T03:49:37.130Z,4.12
2023-02-14T03:50:42.174Z,4.09
2023-02-14T03:51:47.582Z,3.87
2023-02-14T03:52:51.900Z,3.98
2023-02-14T03:53:56.029Z,3.99
2023-02-14T03:55:01.308Z,4.04
2023-02-14T03:56:06.330Z,4.02
2023-02-14T03:57:14.483Z,4.03
2023-02-14T03:58:29.170Z,4.12
2023-02-14T03:59:32.647Z,4.18
2023-02-14T04:00:37.623Z,3.98
2023-02-14T04:01:49.359Z,3.80
2023-02-14T04:02:54.467Z,3.84
2023-02-14T04:03:58.482Z,3.89
2023-02-14T04:05:03.448Z,3.78
2023-02-14T04:06:07.557Z,3.73
2023-02-14T04:07:14.633Z,3.74
2023-02-14T04:08:26.296Z,3.79
2023-02-14T04:09:30.430Z,3.82
2023-02-14T04:10:36.912Z,3.83
2023-02-14T04:11:40.473Z,3.84
2023-02-14T04:12:45.521Z,3.82
2023-02-14T04:13:48.745Z,3.84
2023-02-14T04:14:52.236Z,3.82
2023-02-14T04:15:54.517Z,3.92
2023-02-14T04:17:16.469Z,3.79
2023-02-14T04:18:38.367Z,3.81
2023-02-14T04:19:41.344Z,3.84
2023-02-14T04:20:44.646Z,4.02
2023-02-14T04:21:47.620Z,3.87
2023-02-14T04:22:52.414Z,3.70
2023-02-14T04:23:54.837Z,3.73
2023-02-14T04:24:58.240Z,3.83
2023-02-14T04:26:01.431Z,3.83
2023-02-14T04:27:11.230Z,3.97
2023-02-14T04:28:15.444Z,3.89
2023-02-14T04:29:20.617Z,3.84
2023-02-14T04:30:24.126Z,3.81
2023-02-14T04:31:28.467Z,3.94
2023-02-14T04:32:33.066Z,3.94
2023-02-14T04:33:36.528Z,3.84
2023-02-14T04:34:40.647Z,3.82
2023-02-14T04:35:44.776Z,3.77
2023-02-14T04:36:49.068Z,3.78
2023-02-14T04:37:54.614Z,3.74
2023-02-14T04:38:57.394Z,3.73
2023-02-14T04:39:59.850Z,3.88
2023-02-14T04:41:03.460Z,3.83
2023-02-14T04:42:06.853Z,3.82
2023-02-14T04:43:10.367Z,3.85
2023-02-14T04:44:13.592Z,3.79
2023-02-14T04:45:17.019Z,3.78
2023-02-14T04:46:20.847Z,3.78
2023-02-14T04:47:24.287Z,3.87
2023-02-14T04:48:27.717Z,3.76
2023-02-14T04:49:30.977Z,3.83
2023-02-14T04:50:35.007Z,3.88
2023-02-14T04:51:39.171Z,4.02
2023-02-14T04:52:43.367Z,3.96
2023-02-14T04:53:46.869Z,3.74
2023-02-14T04:54:50.281Z,3.65
2023-02-14T04:55:55.557Z,3.74
2023-02-14T04:56:59.790Z,3.71
2023-02-14T04:58:03.083Z,3.82
2023-02-14T04:59:08.069Z,3.80
2023-02-14T05:00:15.678Z,3.88
2023-02-14T05:01:19.073Z,3.92
2023-02-14T05:02:25.271Z,3.89
2023-02-14T05:03:28.543Z,3.89
2023-02-14T05:04:32.060Z,3.83
2023-02-14T05:05:35.237Z,3.92
2023-02-14T05:06:39.604Z,3.83
2023-02-14T05:07:43.925Z,3.79
2023-02-14T05:08:47.644Z,3.85
2023-02-14T05:09:53.440Z,3.76
2023-02-14T05:10:56.878Z,3.67
2023-02-14T05:12:00.499Z,3.69
2023-02-14T05:13:03.564Z,3.81
2023-02-14T05:14:06.109Z,3.74
2023-02-14T05:15:11.286Z,3.66
2023-02-14T05:16:14.910Z,3.64
2023-02-14T05:17:18.716Z,3.73
2023-02-14T05:18:23.776Z,3.77
2023-02-14T05:19:26.454Z,3.80
2023-02-14T05:20:31.211Z,3.69
2023-02-14T05:21:35.968Z,3.61
2023-02-14T05:22:39.698Z,3.72
2023-02-14T05:23:43.919Z,3.67
2023-02-14T05:24:48.588Z,3.59
2023-02-14T05:25:52.080Z,3.61
2023-02-14T05:26:56.776Z,3.51
2023-02-14T05:27:59.501Z,3.64
2023-02-14T05:29:03.864Z,3.58
2023-02-14T05:30:07.395Z,3.44
2023-02-14T05:31:10.092Z,3.59
2023-02-14T05:32:13.702Z,3.68
2023-02-14T05:33:17.646Z,3.57
2023-02-14T05:34:21.674Z,3.56
2023-02-14T05:35:25.291Z,3.58
2023-02-14T05:36:28.165Z,3.62
2023-02-14T05:37:32.958Z,3.63
2023-02-14T05:38:37.933Z,3.72
2023-02-14T05:39:41.528Z,3.71
2023-02-14T05:40:44.788Z,3.82
2023-02-14T05:41:48.514Z,3.76
2023-02-14T05:42:56.500Z,3.79
2023-02-14T05:43:59.394Z,3.80
2023-02-14T05:45:04.697Z,3.80
2023-02-14T05:46:07.523Z,3.71
2023-02-14T05:47:13.044Z,3.84
2023-02-14T05:48:16.236Z,3.81
2023-02-14T05:49:19.945Z,3.96
2023-02-14T05:50:23.778Z,3.83
2023-02-14T05:51:27.675Z,3.77
2023-02-14T05:52:30.252Z,3.65
2023-02-14T05:53:35.256Z,3.79
2023-02-14T05:54:38.933Z,3.82
2023-02-14T05:55:42.648Z,3.71
2023-02-14T05:56:45.531Z,3.61
2023-02-14T05:57:50.206Z,3.79
2023-02-14T05:58:54.717Z,3.86
2023-02-14T05:59:58.354Z,3.88
2023-02-14T06:01:01.230Z,3.82
2023-02-14T06:02:04.958Z,3.83
2023-02-14T06:03:08.551Z,3.77
2023-02-14T06:04:11.822Z,3.91
2023-02-14T06:05:17.851Z,3.93
2023-02-14T06:06:20.311Z,3.84
2023-02-14T06:07:23.302Z,3.88
2023-02-14T06:08:27.739Z,3.97
2023-02-14T06:09:31.150Z,3.96
2023-02-14T06:10:36.102Z,4.14
2023-02-14T06:11:40.123Z,4.17
2023-02-14T06:12:43.357Z,4.11
2023-02-14T06:13:46.317Z,3.91
2023-02-14T06:14:52.264Z,4.06
2023-02-14T06:15:55.731Z,4.05
2023-02-14T06:16:59.808Z,4.04
2023-02-14T06:18:03.785Z,4.00
2023-02-14T06:19:07.208Z,4.10
2023-02-14T06:20:10.577Z,4.18
2023-02-14T06:21:14.177Z,4.48
2023-02-14T06:22:17.594Z,4.47
2023-02-14T06:23:20.038Z,4.60
2023-02-14T06:24:23.949Z,4.51
2023-02-14T06:25:27.613Z,4.53
2023-02-14T06:26:31.607Z,4.41
2023-02-14T06:27:35.434Z,4.55
2023-02-14T06:28:40.841Z,4.54
2023-02-14T06:29:44.529Z,4.45
2023-02-14T06:30:48.529Z,4.53
2023-02-14T06:31:51.546Z,4.38
2023-02-14T06:32:56.281Z,4.59
2023-02-14T06:33:59.889Z,4.57
2023-02-14T06:35:04.348Z,4.60
2023-02-14T06:36:09.154Z,4.68
2023-02-14T06:37:12.290Z,4.59
2023-02-14T06:38:16.929Z,4.63
2023-02-14T06:39:20.444Z,4.65
2023-02-14T06:40:24.763Z,4.42
2023-02-14T06:41:30.805Z,4.41
2023-02-14T06:42:34.997Z,4.66
2023-02-14T06:43:37.911Z,4.98
2023-02-14T06:44:42.174Z,5.24
2023-02-14T06:45:45.948Z,5.23
2023-02-14T06:46:48.327Z,5.64
2023-02-14T06:47:52.142Z,6.18
2023-02-14T06:48:55.551Z,6.33
2023-02-14T06:50:02.945Z,5.92
2023-02-14T06:51:07.473Z,5.79
2023-02-14T06:52:10.766Z,5.76
2023-02-14T06:53:14.052Z,6.08
2023-02-14T06:54:17.348Z,6.49
2023-02-14T06:55:21.176Z,6.87
2023-02-14T06:56:24.777Z,6.55
2023-02-14T06:57:27.945Z,6.16
2023-02-14T06:58:33.007Z,5.93
2023-02-14T06:59:36.452Z,5.58
2023-02-14T07:00:41.626Z,5.41
2023-02-14T07:01:46.583Z,5.88
2023-02-14T07:02:49.003Z,5.77
2023-02-14T07:03:52.560Z,5.77
2023-02-14T07:04:56.692Z,6.02
2023-02-14T07:05:59.937Z,6.07
2023-02-14T07:07:03.795Z,5.87
2023-02-14T07:08:08.633Z,6.02
2023-02-14T07:09:11.442Z,6.53
2023-02-14T07:10:15.589Z,6.32
2023-02-14T07:11:19.679Z,6.69
2023-02-14T07:12:24.453Z,7.01
2023-02-14T07:13:28.078Z,7.78
2023-02-14T07:14:31.475Z,8.33
2023-02-14T07:15:36.648Z,8.45
2023-02-14T07:16:43.383Z,8.78
2023-02-14T07:17:46.856Z,9.87
2023-02-14T07:18:50.184Z,10.81
2023-02-14T07:19:55.513Z,10.83
2023-02-14T07:20:58.264Z,10.31
2023-02-14T07:22:01.998Z,9.28
2023-02-14T07:23:05.361Z,9.10
2023-02-14T07:24:10.642Z,9.50
2023-02-14T07:25:14.975Z,8.68
2023-02-14T07:26:20.087Z,10.16
2023-02-14T07:27:23.377Z,11.54
2023-02-14T07:28:26.859Z,12.83
2023-02-14T07:29:30.047Z,11.90
2023-02-14T07:30:32.579Z,13.76
2023-02-14T07:31:36.283Z,14.01
2023-02-14T07:32:40.997Z,14.38
2023-02-14T07:33:44.489Z,15.31
2023-02-14T07:34:48.826Z,13.81
2023-02-14T07:35:52.541Z,11.44
2023-02-14T07:36:56.030Z,11.11
2023-02-14T07:38:01.542Z,11.93
2023-02-14T07:39:05.043Z,13.53
2023-02-14T07:40:14.543Z,15.36
2023-02-14T07:41:14.571Z,16.15
2023-02-14T07:42:17.004Z,15.71
2023-02-14T07:43:21.462Z,14.26
2023-02-14T07:44:26.523Z,11.86
2023-02-14T07:45:29.933Z,13.16
2023-02-14T07:46:32.546Z,14.17
2023-02-14T07:47:39.276Z,14.16
2023-02-14T07:48:43.408Z,11.52
2023-02-14T07:49:46.938Z,8.51
2023-02-14T07:50:53.054Z,8.23
2023-02-14T07:51:56.381Z,7.95
2023-02-14T07:53:00.325Z,9.93
2023-02-14T07:54:03.809Z,10.34
2023-02-14T07:55:07.821Z,13.29
2023-02-14T07:56:11.464Z,14.84
2023-02-14T07:57:14.821Z,13.34
2023-02-14T07:58:22.988Z,11.14
2023-02-14T07:59:27.148Z,9.16
2023-02-14T08:00:30.066Z,8.20
2023-02-14T08:01:33.559Z,7.64
2023-02-14T08:02:36.028Z,7.19
2023-02-14T08:03:39.439Z,7.13
2023-02-14T08:04:41.701Z,6.78
2023-02-14T08:05:46.126Z,6.38
2023-02-14T08:06:49.536Z,6.11
2023-02-14T08:07:53.248Z,6.15
2023-02-14T08:08:56.652Z,5.98
2023-02-14T08:10:00.192Z,5.89
2023-02-14T08:11:03.758Z,5.86
2023-02-14T08:12:26.510Z,5.85
2023-02-14T08:13:31.871Z,5.65
2023-02-14T08:14:35.480Z,5.71
2023-02-14T08:15:56.573Z,5.55
2023-02-14T08:16:59.718Z,5.46
2023-02-14T08:18:04.801Z,5.72
2023-02-14T08:19:08.246Z,5.60
2023-02-14T08:20:12.535Z,5.57
2023-02-14T08:21:17.700Z,5.89
2023-02-14T08:22:20.865Z,5.95
2023-02-14T08:23:26.098Z,6.03
2023-02-14T08:24:29.584Z,6.20
2023-02-14T08:25:32.977Z,6.39
2023-02-14T08:26:38.058Z,6.21
2023-02-14T08:27:42.326Z,6.08
2023-02-14T08:28:44.638Z,6.00
2023-02-14T08:29:48.182Z,5.94
2023-02-14T08:30:51.903Z,5.88
2023-02-14T08:31:56.448Z,5.81
2023-02-14T08:32:59.992Z,5.66
2023-02-14T08:34:05.821Z,5.80
2023-02-14T08:35:09.543Z,5.85
2023-02-14T08:36:12.305Z,5.70
2023-02-14T08:37:17.177Z,5.65
2023-02-14T08:38:21.590Z,5.77
2023-02-14T08:39:24.077Z,5.70
2023-02-14T08:40:27.811Z,5.63
2023-02-14T08:41:31.298Z,5.60
2023-02-14T08:42:34.598Z,5.53
2023-02-14T08:43:38.301Z,5.61
2023-02-14T08:44:41.400Z,5.72
2023-02-14T08:45:44.700Z,5.89
2023-02-14T08:46:48.044Z,5.69
2023-02-14T08:47:52.563Z,5.75
2023-02-14T08:48:55.543Z,5.66
2023-02-14T08:49:58.677Z,5.67
2023-02-14T08:51:08.110Z,5.74
2023-02-14T08:52:11.495Z,5.67
2023-02-14T08:53:15.393Z,5.54
2023-02-14T08:54:17.673Z,5.50
2023-02-14T08:55:21.972Z,5.52
2023-02-14T08:56:25.494Z,5.54
2023-02-14T08:57:29.218Z,5.45
2023-02-14T08:58:32.929Z,5.63
2023-02-14T08:59:36.319Z,5.60
2023-02-14T09:00:38.702Z,5.46
2023-02-14T09:01:44.904Z,5.38
2023-02-14T09:02:56.311Z,5.46
2023-02-14T09:03:58.752Z,5.64
2023-02-14T09:05:03.662Z,5.73
2023-02-14T09:06:08.950Z,5.79
2023-02-14T09:07:13.551Z,5.77
2023-02-14T09:08:17.142Z,5.59
2023-02-14T09:09:20.355Z,5.66
2023-02-14T09:10:24.614Z,5.62
2023-02-14T09:11:29.015Z,5.58
2023-02-14T09:12:31.953Z,5.61
2023-02-14T09:13:35.564Z,5.70
2023-02-14T09:14:48.591Z,5.39
2023-02-14T09:15:51.452Z,5.58
2023-02-14T09:16:54.889Z,5.63
2023-02-14T09:18:01.198Z,5.62
2023-02-14T09:19:04.475Z,5.57
2023-02-14T09:20:11.536Z,5.45
2023-02-14T09:21:15.668Z,5.28
2023-02-14T09:22:19.412Z,5.21
2023-02-14T09:23:23.092Z,5.19
2023-02-14T09:24:27.223Z,5.33
2023-02-14T09:25:30.937Z,5.49
2023-02-14T09:26:37.279Z,5.41
2023-02-14T09:27:39.515Z,5.53
2023-02-14T09:28:43.335Z,5.59
2023-02-14T09:29:46.850Z,5.62
2023-02-14T09:30:54.372Z,5.41
2023-02-14T09:31:57.664Z,5.42
2023-02-14T09:32:59.890Z,5.36
2023-02-14T09:34:04.202Z,5.26
2023-02-14T09:35:25.562Z,5.27
2023-02-14T09:36:46.605Z,5.49
2023-02-14T09:38:11.423Z,5.33
2023-02-14T09:39:14.655Z,5.36
2023-02-14T09:40:18.845Z,5.40
2023-02-14T09:41:29.051Z,5.41
2023-02-14T09:42:40.283Z,5.32
2023-02-14T09:43:51.052Z,5.29
2023-02-14T09:45:05.255Z,5.35
2023-02-14T09:46:11.303Z,5.24
2023-02-14T09:47:33.156Z,5.26
2023-02-14T09:48:41.677Z,5.25
2023-02-14T09:49:48.640Z,5.30
2023-02-14T09:50:54.023Z,5.24
2023-02-14T09:51:58.154Z,5.12
2023-02-14T09:53:03.314Z,5.21
2023-02-14T09:54:11.956Z,5.08
2023-02-14T09:55:17.010Z,5.24
2023-02-14T09:56:25.337Z,5.40
2023-02-14T09:57:46.648Z,5.39
2023-02-14T09:58:56.698Z,5.64
2023-02-14T10:00:15.323Z,5.50
2023-02-14T10:01:29.900Z,5.64
2023-02-14T10:02:40.130Z,5.70
2023-02-14T10:03:44.673Z,5.40
2023-02-14T10:05:02.876Z,5.33
2023-02-14T10:06:27.007Z,5.43
2023-02-14T10:07:33.692Z,5.45
2023-02-14T10:08:44.211Z,5.70
2023-02-14T10:10:05.148Z,5.68
2023-02-14T10:11:13.872Z,5.48
2023-02-14T10:12:23.414Z,5.51
2023-02-14T10:13:34.253Z,5.77
2023-02-14T10:14:42.393Z,5.79
2023-02-14T10:15:48.127Z,5.70
2023-02-14T10:16:53.444Z,5.58
2023-02-14T10:18:00.826Z,5.39
2023-02-14T10:19:06.034Z,5.62
2023-02-14T10:20:13.552Z,5.90
2023-02-14T10:21:17.993Z,5.91
2023-02-14T10:22:24.643Z,5.95
2023-02-14T10:23:29.807Z,6.07
2023-02-14T10:24:40.729Z,5.84
2023-02-14T10:25:51.634Z,5.81
2023-02-14T10:26:59.442Z,6.15
2023-02-14T10:28:02.838Z,6.26
2023-02-14T10:29:08.233Z,6.28
2023-02-14T10:30:14.939Z,6.42
2023-02-14T10:31:24.259Z,6.18
2023-02-14T10:32:29.618Z,6.19
2023-02-14T10:33:35.294Z,6.58
2023-02-14T10:34:48.343Z,6.43
2023-02-14T10:35:53.588Z,6.12
2023-02-14T10:36:57.731Z,5.82
2023-02-14T10:38:05.728Z,5.92
2023-02-14T10:39:15.082Z,6.13
2023-02-14T10:40:36.342Z,6.20
2023-02-14T10:41:43.395Z,5.99
2023-02-14T10:42:49.886Z,6.08
2023-02-14T10:44:14.144Z,5.79
2023-02-14T10:45:32.452Z,5.90
2023-02-14T10:46:38.566Z,5.96
2023-02-14T10:47:58.373Z,5.99
2023-02-14T10:49:06.576Z,6.37
2023-02-14T10:50:11.732Z,6.34
2023-02-14T10:51:34.266Z,6.26
2023-02-14T10:52:39.550Z,6.19
2023-02-14T10:53:47.754Z,6.42
2023-02-14T10:54:55.753Z,5.99
2023-02-14T10:56:20.665Z,5.97
2023-02-14T10:57:28.965Z,5.83
2023-02-14T10:58:35.499Z,5.54
2023-02-14T10:59:47.727Z,5.44
2023-02-14T11:01:02.336Z,5.64
2023-02-14T11:02:06.711Z,5.55
2023-02-14T11:03:11.300Z,5.77
2023-02-14T11:04:15.458Z,5.66
2023-02-14T11:05:19.887Z,5.97
2023-02-14T11:06:25.797Z,5.94
2023-02-14T11:07:29.213Z,6.06
2023-02-14T11:08:34.002Z,6.36
2023-02-14T11:09:37.190Z,6.32
2023-02-14T11:10:39.870Z,6.31
2023-02-14T11:11:44.852Z,6.40
2023-02-14T11:12:48.042Z,6.74
2023-02-14T11:13:51.599Z,6.89
2023-02-14T11:14:55.673Z,6.77
2023-02-14T11:16:03.208Z,6.84
2023-02-14T11:17:26.132Z,6.99
2023-02-14T11:18:34.468Z,6.60
2023-02-14T11:19:39.259Z,6.24
2023-02-14T11:20:42.292Z,6.13
2023-02-14T11:21:46.233Z,6.05
2023-02-14T11:22:50.099Z,5.94
2023-02-14T11:23:53.477Z,5.65
2023-02-14T11:24:58.619Z,5.52
2023-02-14T11:26:05.358Z,5.78
2023-02-14T11:27:09.476Z,5.93
2023-02-14T11:28:17.294Z,5.79
2023-02-14T11:29:22.647Z,6.02
2023-02-14T11:30:29.926Z,5.98
2023-02-14T11:31:34.278Z,6.04
2023-02-14T11:32:38.932Z,6.06
2023-02-14T11:33:44.862Z,5.78
2023-02-14T11:34:49.945Z,6.08
2023-02-14T11:35:53.579Z,6.08
2023-02-14T11:36:57.350Z,6.12
2023-02-14T11:38:02.084Z,5.84
2023-02-14T11:39:09.649Z,6.00
2023-02-14T11:40:23.309Z,6.05
2023-02-14T11:41:26.468Z,5.90
2023-02-14T11:42:38.491Z,5.85
2023-02-14T11:43:48.478Z,5.81
2023-02-14T11:44:56.444Z,5.91
2023-02-14T11:46:15.506Z,5.89
2023-02-14T11:47:20.516Z,5.56
2023-02-14T11:48:37.882Z,5.56
2023-02-14T11:49:32.939Z,5.58
2023-02-14T11:50:40.416Z,5.56
2023-02-14T11:51:45.767Z,5.60
2023-02-14T11:52:52.696Z,5.61
2023-02-14T11:53:56.574Z,5.51
2023-02-14T11:54:59.977Z,5.77
2023-02-14T11:56:07.738Z,5.83
2023-02-14T11:57:14.124Z,5.86
2023-02-14T11:58:19.129Z,5.77
2023-02-14T11:59:29.564Z,5.74
2023-02-14T12:00:37.151Z,5.97
2023-02-14T12:01:40.471Z,5.92
2023-02-14T12:02:49.316Z,5.94
2023-02-14T12:03:53.856Z,5.81
2023-02-14T12:05:07.862Z,5.78
2023-02-14T12:06:10.801Z,5.89
2023-02-14T12:07:15.737Z,5.97
2023-02-14T12:08:22.811Z,5.94
2023-02-14T12:09:27.831Z,5.90
2023-02-14T12:10:32.017Z,6.06
2023-02-14T12:11:35.265Z,6.05
2023-02-14T12:12:39.849Z,6.09
2023-02-14T12:13:44.941Z,6.09
2023-02-14T12:14:48.387Z,5.86
2023-02-14T12:15:57.206Z,5.91
2023-02-14T12:17:14.473Z,5.93
2023-02-14T12:18:19.372Z,5.99
2023-02-14T12:19:23.838Z,5.98
2023-02-14T12:20:28.738Z,5.77
2023-02-14T12:21:37.938Z,5.59
2023-02-14T12:22:43.018Z,5.39
2023-02-14T12:23:51.028Z,5.55
2023-02-14T12:25:08.340Z,5.65
2023-02-14T12:26:31.301Z,5.38
2023-02-14T12:27:35.726Z,5.45
2023-02-14T12:28:43.943Z,5.44
2023-02-14T12:30:06.171Z,5.75
2023-02-14T12:31:10.716Z,5.69
2023-02-14T12:32:27.096Z,5.71
2023-02-14T12:33:30.192Z,5.97
2023-02-14T12:34:33.891Z,5.56
2023-02-14T12:35:57.632Z,5.48
2023-02-14T12:37:14.978Z,5.63
2023-02-14T12:38:22.238Z,5.77
2023-02-14T12:39:36.874Z,5.66
2023-02-14T12:40:44.809Z,5.78
2023-02-14T12:41:55.750Z,5.70
2023-02-14T12:43:00.719Z,5.85
2023-02-14T12:44:07.836Z,5.92
2023-02-14T12:45:18.063Z,5.70
2023-02-14T12:46:22.779Z,5.56
2023-02-14T12:47:27.980Z,5.72
2023-02-14T12:48:48.454Z,5.85
2023-02-14T12:50:02.775Z,5.96
2023-02-14T12:51:26.254Z,5.89
2023-02-14T12:52:48.975Z,5.78
2023-02-14T12:54:01.512Z,5.50
2023-02-14T12:55:24.218Z,5.46
2023-02-14T12:56:45.280Z,5.49
2023-02-14T12:57:52.361Z,5.41
2023-02-14T12:58:59.322Z,5.59
2023-02-14T13:00:04.405Z,5.57
2023-02-14T13:01:32.891Z,5.46
2023-02-14T13:02:51.839Z,5.26
2023-02-14T13:04:07.872Z,5.66
2023-02-14T13:05:30.987Z,5.78
2023-02-14T13:06:35.921Z,5.79
2023-02-14T13:07:57.651Z,5.54
2023-02-14T13:09:08.680Z,5.58
2023-02-14T13:10:16.493Z,5.67
2023-02-14T13:11:24.443Z,5.78
2023-02-14T13:12:35.319Z,5.34
2023-02-14T13:14:01.280Z,5.12
2023-02-14T13:15:12.075Z,4.86
2023-02-14T13:16:19.059Z,4.82
2023-02-14T13:17:25.392Z,4.80
2023-02-14T13:18:36.605Z,4.78
2023-02-14T13:19:48.041Z,4.62
2023-02-14T13:20:52.981Z,4.73
2023-02-14T13:21:59.644Z,4.79
2023-02-14T13:23:11.907Z,4.78
2023-02-14T13:24:25.046Z,4.59
2023-02-14T13:25:33.626Z,4.78
2023-02-14T13:26:40.192Z,4.87
2023-02-14T13:27:43.589Z,4.71
2023-02-14T13:28:50.464Z,4.53
2023-02-14T13:29:57.525Z,4.64
2023-02-14T13:31:03.428Z,4.56
2023-02-14T13:32:06.937Z,4.68
2023-02-14T13:33:14.601Z,4.70
2023-02-14T13:34:21.970Z,4.69
2023-02-14T13:35:25.859Z,4.77
2023-02-14T13:36:28.848Z,4.79
2023-02-14T13:37:32.707Z,4.79
2023-02-14T13:38:36.848Z,4.61
2023-02-14T13:39:50.880Z,4.58
2023-02-14T13:40:57.059Z,4.59
2023-02-14T13:42:00.308Z,4.53
2023-02-14T13:43:04.871Z,4.60
2023-02-14T13:44:08.505Z,4.49
2023-02-14T13:45:14.240Z,4.55
2023-02-14T13:46:19.514Z,4.54
2023-02-14T13:47:24.617Z,4.49
2023-02-14T13:48:28.650Z,4.39
2023-02-14T13:49:34.076Z,4.57
2023-02-14T13:50:43.727Z,4.63
2023-02-14T13:51:49.831Z,4.54
2023-02-14T13:52:53.212Z,4.53
2023-02-14T13:53:56.268Z,4.57
2023-02-14T13:55:00.430Z,4.76
2023-02-14T13:56:05.453Z,4.77
2023-02-14T13:58:28.493Z,5.00
2023-02-14T13:59:36.200Z,4.85
2023-02-14T14:00:40.192Z,4.81
2023-02-14T14:01:46.429Z,4.66
2023-02-14T14:02:51.626Z,4.71
2023-02-14T14:03:56.102Z,4.89
2023-02-14T14:04:59.897Z,5.04
2023-02-14T14:06:13.536Z,5.17
2023-02-14T14:07:18.819Z,5.01
2023-02-14T14:08:24.305Z,4.95
2023-02-14T14:09:40.438Z,4.79
2023-02-14T14:10:45.738Z,4.72
2023-02-14T14:11:49.775Z,4.88
2023-02-14T14:12:52.636Z,4.83
2023-02-14T14:13:57.323Z,4.87
2023-02-14T14:15:09.044Z,4.56
2023-02-14T14:16:21.129Z,4.66
2023-02-14T14:17:26.808Z,4.79
2023-02-14T14:18:31.279Z,4.82
2023-02-14T14:19:35.507Z,4.85
2023-02-14T14:20:41.715Z,4.56
2023-02-14T14:21:48.041Z,4.49
2023-02-14T14:22:55.298Z,4.45
2023-02-14T14:24:09.568Z,4.63
2023-02-14T14:25:14.770Z,4.71
2023-02-14T14:26:33.129Z,4.62
2023-02-14T14:27:38.196Z,4.57
2023-02-14T14:28:43.434Z,4.75
2023-02-14T14:29:51.665Z,4.47
2023-02-14T14:30:55.702Z,4.43
2023-02-14T14:31:59.284Z,4.50
2023-02-14T14:33:18.971Z,4.53
2023-02-14T14:34:25.506Z,4.35
2023-02-14T14:35:28.897Z,4.24
2023-02-14T14:36:32.524Z,4.43
2023-02-14T14:37:36.445Z,4.38
2023-02-14T14:38:41.498Z,4.23
2023-02-14T14:39:46.790Z,4.19
2023-02-14T14:40:50.838Z,4.15
2023-02-14T14:41:57.276Z,4.10
2023-02-14T14:43:09.004Z,3.95
2023-02-14T14:44:13.562Z,4.03
2023-02-14T14:45:21.340Z,3.88
2023-02-14T14:46:23.953Z,3.84
2023-02-14T14:47:28.665Z,3.87
2023-02-14T14:48:41.270Z,3.95